sensor_id;sensor_type;location;lat;lon;timestamp;pressure;altitude;pressure_sealevel;temperature;humidity
64115;BME280;62188;35.640;139.748;2023-12-20T00:02:19;101186.23;;;14.06;24.68
64115;BME280;62188;35.640;139.748;2023-12-20T00:04:44;101184.32;;;14.27;24.11
64115;BME280;62188;35.640;139.748;2023-12-20T00:07:09;101181.05;;;14.61;23.77
64115;BME280;62188;35.640;139.748;2023-12-20T00:09:36;101179.52;;;14.48;23.18
64115;BME280;62188;35.640;139.748;2023-12-20T00:12:00;101178.58;;;14.75;23.17
64115;BME280;62188;35.640;139.748;2023-12-20T00:14:25;101171.75;;;15.39;23.12
64115;BME280;62188;35.640;139.748;2023-12-20T00:16:52;101168.57;;;15.17;22.86
64115;BME280;62188;35.640;139.748;2023-12-20T00:19:16;101165.98;;;15.23;22.85
64115;BME280;62188;35.640;139.748;2023-12-20T00:21:42;101159.10;;;15.62;22.75
64115;BME280;62188;35.640;139.748;2023-12-20T00:24:06;101151.64;;;15.96;22.61
64115;BME280;62188;35.640;139.748;2023-12-20T00:26:31;101143.82;;;15.95;22.89
64115;BME280;62188;35.640;139.748;2023-12-20T00:28:58;101136.96;;;15.92;22.33
64115;BME280;62188;35.640;139.748;2023-12-20T00:31:21;101128.96;;;16.23;22.59
64115;BME280;62188;35.640;139.748;2023-12-20T00:33:47;101130.20;;;16.71;22.10
64115;BME280;62188;35.640;139.748;2023-12-20T00:36:12;101122.17;;;16.75;22.45
64115;BME280;62188;35.640;139.748;2023-12-20T00:38:38;101116.65;;;17.05;22.27
64115;BME280;62188;35.640;139.748;2023-12-20T00:41:06;101113.63;;;17.27;21.80
64115;BME280;62188;35.640;139.748;2023-12-20T00:43:30;101111.24;;;16.97;22.54
64115;BME280;62188;35.640;139.748;2023-12-20T00:45:55;101099.56;;;17.38;21.66
64115;BME280;62188;35.640;139.748;2023-12-20T00:48:19;101088.01;;;16.85;22.00
64115;BME280;62188;35.640;139.748;2023-12-20T00:50:47;101079.26;;;16.52;22.57
64115;BME280;62188;35.640;139.748;2023-12-20T00:53:10;101071.23;;;16.89;22.05
64115;BME280;62188;35.640;139.748;2023-12-20T00:55:36;101065.64;;;16.36;22.33
64115;BME280;62188;35.640;139.748;2023-12-20T00:58:01;101069.47;;;16.37;22.42
64115;BME280;62188;35.640;139.748;2023-12-20T01:00:26;101061.14;;;16.50;22.45
64115;BME280;62188;35.640;139.748;2023-12-20T01:02:51;101042.63;;;16.63;23.35
64115;BME280;62188;35.640;139.748;2023-12-20T01:05:18;101042.85;;;16.82;22.87
64115;BME280;62188;35.640;139.748;2023-12-20T01:07:42;101032.27;;;17.40;23.44
64115;BME280;62188;35.640;139.748;2023-12-20T01:10:07;101037.18;;;16.49;22.55
64115;BME280;62188;35.640;139.748;2023-12-20T01:12:33;101045.67;;;16.20;22.83
64115;BME280;62188;35.640;139.748;2023-12-20T01:14:58;101044.94;;;17.12;22.54
64115;BME280;62188;35.640;139.748;2023-12-20T01:17:24;101039.66;;;17.22;22.10
64115;BME280;62188;35.640;139.748;2023-12-20T01:19:50;101023.27;;;17.21;22.47
64115;BME280;62188;35.640;139.748;2023-12-20T01:22:16;101019.07;;;17.38;22.40
64115;BME280;62188;35.640;139.748;2023-12-20T01:24:41;101015.45;;;17.96;21.94
64115;BME280;62188;35.640;139.748;2023-12-20T01:27:07;101007.41;;;17.53;22.34
64115;BME280;62188;35.640;139.748;2023-12-20T01:29:32;101001.30;;;17.62;22.13
64115;BME280;62188;35.640;139.748;2023-12-20T01:31:57;100994.92;;;18.09;21.86
64115;BME280;62188;35.640;139.748;2023-12-20T01:34:24;100988.04;;;18.11;21.79
64115;BME280;62188;35.640;139.748;2023-12-20T01:36:48;100987.61;;;17.67;22.09
64115;BME280;62188;35.640;139.748;2023-12-20T01:39:14;100985.94;;;17.30;22.96
64115;BME280;62188;35.640;139.748;2023-12-20T01:41:40;100984.41;;;17.90;22.26
64115;BME280;62188;35.640;139.748;2023-12-20T01:44:07;100978.69;;;18.14;22.61
64115;BME280;62188;35.640;139.748;2023-12-20T01:46:31;100979.42;;;17.39;22.92
64115;BME280;62188;35.640;139.748;2023-12-20T01:48:59;100968.06;;;17.41;23.05
64115;BME280;62188;35.640;139.748;2023-12-20T01:51:23;100961.92;;;17.98;22.12
64115;BME280;62188;35.640;139.748;2023-12-20T01:53:48;100962.02;;;14.53;24.16
64115;BME280;62188;35.640;139.748;2023-12-20T01:56:13;100960.78;;;13.00;25.58
64115;BME280;62188;35.640;139.748;2023-12-20T01:58:41;100956.50;;;14.15;25.07
64115;BME280;62188;35.640;139.748;2023-12-20T02:01:05;100952.10;;;15.10;24.69
64115;BME280;62188;35.640;139.748;2023-12-20T02:03:31;100946.37;;;16.28;24.13
64115;BME280;62188;35.640;139.748;2023-12-20T02:05:56;100938.73;;;15.65;24.21
64115;BME280;62188;35.640;139.748;2023-12-20T02:08:24;100938.39;;;15.74;23.89
64115;BME280;62188;35.640;139.748;2023-12-20T02:10:46;100932.37;;;15.90;24.83
64115;BME280;62188;35.640;139.748;2023-12-20T02:13:12;100917.68;;;16.11;25.12
64115;BME280;62188;35.640;139.748;2023-12-20T02:15:40;100902.76;;;17.19;23.95
64115;BME280;62188;35.640;139.748;2023-12-20T02:18:04;100897.78;;;16.63;24.14
64115;BME280;62188;35.640;139.748;2023-12-20T02:20:28;100894.04;;;15.57;25.20
64115;BME280;62188;35.640;139.748;2023-12-20T02:22:55;100893.38;;;16.14;24.76
64115;BME280;62188;35.640;139.748;2023-12-20T02:25:19;100893.48;;;15.42;25.64
64115;BME280;62188;35.640;139.748;2023-12-20T02:27:45;100888.30;;;14.32;26.66
64115;BME280;62188;35.640;139.748;2023-12-20T02:30:12;100885.95;;;14.87;26.32
64115;BME280;62188;35.640;139.748;2023-12-20T02:32:37;100884.25;;;15.90;25.72
64115;BME280;62188;35.640;139.748;2023-12-20T02:35:01;100880.21;;;16.07;24.93
64115;BME280;62188;35.640;139.748;2023-12-20T02:37:27;100881.78;;;16.53;25.19
64115;BME280;62188;35.640;139.748;2023-12-20T02:39:54;100872.08;;;17.52;23.82
64115;BME280;62188;35.640;139.748;2023-12-20T02:42:20;100873.54;;;16.47;25.11
64115;BME280;62188;35.640;139.748;2023-12-20T02:44:44;100869.15;;;15.68;25.44
64115;BME280;62188;35.640;139.748;2023-12-20T02:47:10;100870.62;;;16.09;25.73
64115;BME280;62188;35.640;139.748;2023-12-20T02:49:35;100870.79;;;16.34;25.42
64115;BME280;62188;35.640;139.748;2023-12-20T02:51:59;100866.01;;;15.57;25.49
64115;BME280;62188;35.640;139.748;2023-12-20T02:54:24;100858.76;;;14.84;26.31
64115;BME280;62188;35.640;139.748;2023-12-20T02:56:50;100850.20;;;15.55;26.18
64115;BME280;62188;35.640;139.748;2023-12-20T02:59:16;100840.36;;;16.31;25.34
64115;BME280;62188;35.640;139.748;2023-12-20T03:01:44;100836.32;;;15.11;26.21
64115;BME280;62188;35.640;139.748;2023-12-20T03:04:07;100832.56;;;15.57;25.17
64115;BME280;62188;35.640;139.748;2023-12-20T03:06:31;100833.17;;;15.97;25.58
64115;BME280;62188;35.640;139.748;2023-12-20T03:08:58;100824.05;;;17.52;24.29
64115;BME280;62188;35.640;139.748;2023-12-20T03:11:26;100820.29;;;17.44;23.64
64115;BME280;62188;35.640;139.748;2023-12-20T03:13:49;100807.99;;;17.02;24.04
64115;BME280;62188;35.640;139.748;2023-12-20T03:16:13;100802.32;;;17.01;24.75
64115;BME280;62188;35.640;139.748;2023-12-20T03:18:38;100803.11;;;18.41;23.72
64115;BME280;62188;35.640;139.748;2023-12-20T03:21:04;100799.62;;;18.79;23.47
64115;BME280;62188;35.640;139.748;2023-12-20T03:23:30;100800.02;;;18.13;24.15
64115;BME280;62188;35.640;139.748;2023-12-20T03:25:55;100793.33;;;17.10;24.91
64115;BME280;62188;35.640;139.748;2023-12-20T03:28:21;100792.48;;;17.88;24.39
64115;BME280;62188;35.640;139.748;2023-12-20T03:30:45;100788.15;;;17.44;24.94
64115;BME280;62188;35.640;139.748;2023-12-20T03:33:11;100785.79;;;15.40;26.90
64115;BME280;62188;35.640;139.748;2023-12-20T03:35:39;100779.41;;;14.01;28.51
64115;BME280;62188;35.640;139.748;2023-12-20T03:38:02;100777.24;;;14.89;28.03
64115;BME280;62188;35.640;139.748;2023-12-20T03:40:28;100778.19;;;14.33;28.05
64115;BME280;62188;35.640;139.748;2023-12-20T03:42:53;100772.27;;;13.08;29.53
64115;BME280;62188;35.640;139.748;2023-12-20T03:45:19;100761.83;;;14.30;28.77
64115;BME280;62188;35.640;139.748;2023-12-20T03:47:44;100753.77;;;12.09;30.73
64115;BME280;62188;35.640;139.748;2023-12-20T03:50:10;100751.31;;;13.35;29.94
64115;BME280;62188;35.640;139.748;2023-12-20T03:52:35;100741.65;;;12.38;31.27
64115;BME280;62188;35.640;139.748;2023-12-20T03:55:01;100741.87;;;11.83;32.43
64115;BME280;62188;35.640;139.748;2023-12-20T03:57:25;100736.41;;;11.92;32.35
64115;BME280;62188;35.640;139.748;2023-12-20T03:59:51;100738.67;;;10.94;33.01
64115;BME280;62188;35.640;139.748;2023-12-20T04:02:15;100738.33;;;11.82;32.99
64115;BME280;62188;35.640;139.748;2023-12-20T04:04:40;100736.04;;;12.08;32.67
64115;BME280;62188;35.640;139.748;2023-12-20T04:07:07;100730.59;;;12.05;33.45
64115;BME280;62188;35.640;139.748;2023-12-20T04:09:32;100740.13;;;12.51;33.08
64115;BME280;62188;35.640;139.748;2023-12-20T04:11:57;100743.39;;;11.96;34.19
64115;BME280;62188;35.640;139.748;2023-12-20T04:14:23;100747.34;;;12.04;34.33
64115;BME280;62188;35.640;139.748;2023-12-20T04:16:49;100745.00;;;11.15;35.82
64115;BME280;62188;35.640;139.748;2023-12-20T04:19:14;100741.11;;;11.21;35.88
64115;BME280;62188;35.640;139.748;2023-12-20T04:21:39;100739.07;;;12.49;34.51
64115;BME280;62188;35.640;139.748;2023-12-20T04:24:05;100737.86;;;12.73;34.11
64115;BME280;62188;35.640;139.748;2023-12-20T04:26:30;100735.02;;;13.49;33.29
64115;BME280;62188;35.640;139.748;2023-12-20T04:28:55;100729.02;;;13.63;32.72
64115;BME280;62188;35.640;139.748;2023-12-20T04:31:20;100730.40;;;14.12;32.58
64115;BME280;62188;35.640;139.748;2023-12-20T04:33:46;100731.97;;;13.95;32.26
64115;BME280;62188;35.640;139.748;2023-12-20T04:36:13;100735.73;;;14.94;31.01
64115;BME280;62188;35.640;139.748;2023-12-20T04:38:36;100735.52;;;16.62;29.49
64115;BME280;62188;35.640;139.748;2023-12-20T04:41:03;100726.22;;;15.96;28.54
64115;BME280;62188;35.640;139.748;2023-12-20T04:43:28;100723.17;;;15.10;29.33
64115;BME280;62188;35.640;139.748;2023-12-20T04:45:53;100724.83;;;16.00;29.04
64115;BME280;62188;35.640;139.748;2023-12-20T04:48:19;100719.06;;;16.47;28.49
64115;BME280;62188;35.640;139.748;2023-12-20T04:50:46;100731.32;;;14.41;30.54
64115;BME280;62188;35.640;139.748;2023-12-20T04:53:10;100727.65;;;14.90;30.35
64115;BME280;62188;35.640;139.748;2023-12-20T04:55:35;100729.72;;;12.83;31.99
64115;BME280;62188;35.640;139.748;2023-12-20T04:58:01;100723.37;;;13.25;32.73
64115;BME280;62188;35.640;139.748;2023-12-20T05:00:26;100723.16;;;13.83;32.24
64115;BME280;62188;35.640;139.748;2023-12-20T05:02:52;100727.79;;;12.79;33.62
64115;BME280;62188;35.640;139.748;2023-12-20T05:05:18;100736.11;;;12.67;33.75
64115;BME280;62188;35.640;139.748;2023-12-20T05:07:43;100738.14;;;12.99;33.96
64115;BME280;62188;35.640;139.748;2023-12-20T05:10:09;100743.25;;;12.98;34.18
64115;BME280;62188;35.640;139.748;2023-12-20T05:12:33;100746.97;;;13.36;33.91
64115;BME280;62188;35.640;139.748;2023-12-20T05:14:59;100750.61;;;13.03;34.33
64115;BME280;62188;35.640;139.748;2023-12-20T05:17:24;100751.82;;;12.47;34.50
64115;BME280;62188;35.640;139.748;2023-12-20T05:19:49;100754.73;;;11.73;35.05
64115;BME280;62188;35.640;139.748;2023-12-20T05:22:15;100757.84;;;12.70;34.43
64115;BME280;62188;35.640;139.748;2023-12-20T05:24:40;100765.32;;;12.78;34.07
64115;BME280;62188;35.640;139.748;2023-12-20T05:27:06;100764.87;;;13.31;33.65
64115;BME280;62188;35.640;139.748;2023-12-20T05:29:31;100768.92;;;12.95;33.50
64115;BME280;62188;35.640;139.748;2023-12-20T05:31:57;100762.41;;;12.76;33.73
64115;BME280;62188;35.640;139.748;2023-12-20T05:34:21;100759.65;;;13.20;33.16
64115;BME280;62188;35.640;139.748;2023-12-20T05:36:47;100757.24;;;13.42;33.39
64115;BME280;62188;35.640;139.748;2023-12-20T05:39:13;100758.43;;;13.68;33.38
64115;BME280;62188;35.640;139.748;2023-12-20T05:41:39;100757.56;;;13.49;32.91
64115;BME280;62188;35.640;139.748;2023-12-20T05:44:05;100752.12;;;13.33;33.30
64115;BME280;62188;35.640;139.748;2023-12-20T05:46:30;100756.71;;;13.27;33.57
64115;BME280;62188;35.640;139.748;2023-12-20T05:49:00;100765.87;;;13.63;33.52
64115;BME280;62188;35.640;139.748;2023-12-20T05:51:24;100770.48;;;13.60;33.00
64115;BME280;62188;35.640;139.748;2023-12-20T05:53:48;100773.84;;;13.27;32.87
64115;BME280;62188;35.640;139.748;2023-12-20T05:56:13;100776.95;;;12.53;33.10
64115;BME280;62188;35.640;139.748;2023-12-20T05:58:40;100782.17;;;11.37;32.98
64115;BME280;62188;35.640;139.748;2023-12-20T06:01:05;100786.63;;;12.65;32.00
64115;BME280;62188;35.640;139.748;2023-12-20T06:03:28;100788.73;;;12.12;32.59
64115;BME280;62188;35.640;139.748;2023-12-20T06:05:56;100796.70;;;11.62;33.28
64115;BME280;62188;35.640;139.748;2023-12-20T06:08:19;100797.01;;;10.98;33.86
64115;BME280;62188;35.640;139.748;2023-12-20T06:10:44;100795.66;;;10.48;34.36
64115;BME280;62188;35.640;139.748;2023-12-20T06:13:10;100794.62;;;12.28;32.99
64115;BME280;62188;35.640;139.748;2023-12-20T06:15:36;100792.13;;;11.63;33.05
64115;BME280;62188;35.640;139.748;2023-12-20T06:18:01;100797.55;;;11.00;33.83
64115;BME280;62188;35.640;139.748;2023-12-20T06:20:26;100795.36;;;12.39;32.68
64115;BME280;62188;35.640;139.748;2023-12-20T06:22:51;100791.81;;;12.04;32.28
64115;BME280;62188;35.640;139.748;2023-12-20T06:25:17;100790.79;;;10.54;33.45
64115;BME280;62188;35.640;139.748;2023-12-20T06:27:42;100794.09;;;10.73;33.35
64115;BME280;62188;35.640;139.748;2023-12-20T06:30:08;100793.42;;;11.15;33.36
64115;BME280;62188;35.640;139.748;2023-12-20T06:32:32;100794.32;;;12.06;32.28
64115;BME280;62188;35.640;139.748;2023-12-20T06:34:57;100802.21;;;12.59;32.21
64115;BME280;62188;35.640;139.748;2023-12-20T06:37:23;100802.31;;;12.60;32.19
64115;BME280;62188;35.640;139.748;2023-12-20T06:39:49;100801.79;;;12.63;31.35
64115;BME280;62188;35.640;139.748;2023-12-20T06:42:14;100798.06;;;12.16;31.61
64115;BME280;62188;35.640;139.748;2023-12-20T06:44:41;100800.22;;;12.74;31.56
64115;BME280;62188;35.640;139.748;2023-12-20T06:47:06;100810.25;;;12.03;31.98
64115;BME280;62188;35.640;139.748;2023-12-20T06:49:31;100795.45;;;12.88;31.74
64115;BME280;62188;35.640;139.748;2023-12-20T06:51:56;100806.36;;;12.73;32.15
64115;BME280;62188;35.640;139.748;2023-12-20T06:54:23;100808.14;;;12.49;31.60
64115;BME280;62188;35.640;139.748;2023-12-20T06:56:48;100796.05;;;11.58;32.50
64115;BME280;62188;35.640;139.748;2023-12-20T06:59:12;100799.40;;;11.92;32.54
64115;BME280;62188;35.640;139.748;2023-12-20T07:01:38;100810.95;;;12.04;32.56
64115;BME280;62188;35.640;139.748;2023-12-20T07:04:03;100808.40;;;11.95;32.65
64115;BME280;62188;35.640;139.748;2023-12-20T07:06:28;100802.37;;;12.00;32.27
64115;BME280;62188;35.640;139.748;2023-12-20T07:08:54;100811.50;;;11.76;32.31
64115;BME280;62188;35.640;139.748;2023-12-20T07:11:21;100813.58;;;11.93;31.98
64115;BME280;62188;35.640;139.748;2023-12-20T07:13:45;100815.19;;;12.28;31.63
64115;BME280;62188;35.640;139.748;2023-12-20T07:16:11;100819.64;;;12.21;32.27
64115;BME280;62188;35.640;139.748;2023-12-20T07:18:35;100817.54;;;11.95;31.75
64115;BME280;62188;35.640;139.748;2023-12-20T07:21:01;100824.60;;;11.27;32.22
64115;BME280;62188;35.640;139.748;2023-12-20T07:23:28;100823.74;;;10.88;32.48
64115;BME280;62188;35.640;139.748;2023-12-20T07:25:52;100821.70;;;12.21;31.66
64115;BME280;62188;35.640;139.748;2023-12-20T07:28:20;100807.05;;;12.04;31.50
64115;BME280;62188;35.640;139.748;2023-12-20T07:30:43;100800.60;;;12.21;31.26
64115;BME280;62188;35.640;139.748;2023-12-20T07:33:08;100808.45;;;11.99;31.43
64115;BME280;62188;35.640;139.748;2023-12-20T07:35:33;100815.77;;;11.75;31.61
64115;BME280;62188;35.640;139.748;2023-12-20T07:37:59;100813.26;;;11.87;31.63
64115;BME280;62188;35.640;139.748;2023-12-20T07:40:25;100808.87;;;11.85;31.42
64115;BME280;62188;35.640;139.748;2023-12-20T07:42:52;100811.32;;;11.46;31.83
64115;BME280;62188;35.640;139.748;2023-12-20T07:45:17;100814.92;;;11.53;31.73
64115;BME280;62188;35.640;139.748;2023-12-20T07:47:41;100818.70;;;11.49;31.65
64115;BME280;62188;35.640;139.748;2023-12-20T07:50:08;100817.94;;;11.63;31.79
64115;BME280;62188;35.640;139.748;2023-12-20T07:52:34;100816.13;;;11.83;31.64
64115;BME280;62188;35.640;139.748;2023-12-20T07:54:58;100813.71;;;10.72;32.26
64115;BME280;62188;35.640;139.748;2023-12-20T07:57:23;100813.01;;;11.10;32.12
64115;BME280;62188;35.640;139.748;2023-12-20T07:59:49;100820.89;;;11.50;32.01
64115;BME280;62188;35.640;139.748;2023-12-20T08:02:16;100820.12;;;12.29;32.31
64115;BME280;62188;35.640;139.748;2023-12-20T08:04:40;100827.05;;;11.06;32.93
64115;BME280;62188;35.640;139.748;2023-12-20T08:07:08;100832.71;;;10.90;33.02
64115;BME280;62188;35.640;139.748;2023-12-20T08:09:33;100839.94;;;11.98;32.42
64115;BME280;62188;35.640;139.748;2023-12-20T08:11:56;100835.80;;;12.22;31.87
64115;BME280;62188;35.640;139.748;2023-12-20T08:14:22;100840.93;;;11.81;32.38
64115;BME280;62188;35.640;139.748;2023-12-20T08:16:47;100839.82;;;11.59;32.52
64115;BME280;62188;35.640;139.748;2023-12-20T08:19:14;100839.85;;;11.26;33.73
64115;BME280;62188;35.640;139.748;2023-12-20T08:21:38;100844.09;;;11.17;34.22
64115;BME280;62188;35.640;139.748;2023-12-20T08:24:04;100853.84;;;11.18;34.66
64115;BME280;62188;35.640;139.748;2023-12-20T08:26:29;100858.80;;;11.41;34.89
64115;BME280;62188;35.640;139.748;2023-12-20T08:28:55;100866.43;;;11.27;35.28
64115;BME280;62188;35.640;139.748;2023-12-20T08:31:22;100863.71;;;11.73;36.23
64115;BME280;62188;35.640;139.748;2023-12-20T08:33:46;100865.89;;;11.32;37.22
64115;BME280;62188;35.640;139.748;2023-12-20T08:36:11;100867.96;;;11.76;36.91
64115;BME280;62188;35.640;139.748;2023-12-20T08:38:37;100864.93;;;12.05;36.82
64115;BME280;62188;35.640;139.748;2023-12-20T08:41:02;100869.86;;;11.87;36.94
64115;BME280;62188;35.640;139.748;2023-12-20T08:43:29;100871.22;;;11.55;37.63
64115;BME280;62188;35.640;139.748;2023-12-20T08:45:53;100873.65;;;11.98;37.77
64115;BME280;62188;35.640;139.748;2023-12-20T08:48:20;100874.01;;;12.20;37.60
64115;BME280;62188;35.640;139.748;2023-12-20T08:50:44;100874.90;;;12.28;37.68
64115;BME280;62188;35.640;139.748;2023-12-20T08:53:10;100871.68;;;11.52;38.57
64115;BME280;62188;35.640;139.748;2023-12-20T08:55:35;100863.86;;;11.79;38.45
64115;BME280;62188;35.640;139.748;2023-12-20T08:58:00;100863.00;;;11.41;39.01
64115;BME280;62188;35.640;139.748;2023-12-20T09:00:26;100860.89;;;12.06;38.63
64115;BME280;62188;35.640;139.748;2023-12-20T09:02:50;100852.19;;;11.84;39.12
64115;BME280;62188;35.640;139.748;2023-12-20T09:05:16;100850.94;;;11.49;39.68
64115;BME280;62188;35.640;139.748;2023-12-20T09:07:41;100853.92;;;11.15;40.57
64115;BME280;62188;35.640;139.748;2023-12-20T09:10:07;100854.46;;;11.63;39.64
64115;BME280;62188;35.640;139.748;2023-12-20T09:12:33;100847.07;;;12.02;39.47
64115;BME280;62188;35.640;139.748;2023-12-20T09:14:58;100833.89;;;12.26;39.35
64115;BME280;62188;35.640;139.748;2023-12-20T09:17:23;100832.43;;;12.38;39.19
64115;BME280;62188;35.640;139.748;2023-12-20T09:19:49;100834.58;;;12.16;39.67
64115;BME280;62188;35.640;139.748;2023-12-20T09:22:14;100833.74;;;12.47;39.52
64115;BME280;62188;35.640;139.748;2023-12-20T09:24:40;100847.34;;;11.97;39.32
64115;BME280;62188;35.640;139.748;2023-12-20T09:27:05;100854.89;;;12.30;39.24
64115;BME280;62188;35.640;139.748;2023-12-20T09:29:30;100854.42;;;12.45;39.62
64115;BME280;62188;35.640;139.748;2023-12-20T09:31:57;100857.51;;;11.88;40.48
64115;BME280;62188;35.640;139.748;2023-12-20T09:34:22;100856.92;;;11.62;40.87
64115;BME280;62188;35.640;139.748;2023-12-20T09:36:46;100848.99;;;12.03;40.36
64115;BME280;62188;35.640;139.748;2023-12-20T09:39:13;100851.05;;;12.15;40.42
64115;BME280;62188;35.640;139.748;2023-12-20T09:41:41;100845.35;;;12.19;40.41
64115;BME280;62188;35.640;139.748;2023-12-20T09:44:04;100842.92;;;12.07;40.35
64115;BME280;62188;35.640;139.748;2023-12-20T09:46:30;100851.12;;;12.62;40.46
64115;BME280;62188;35.640;139.748;2023-12-20T09:48:54;100857.97;;;11.90;40.93
64115;BME280;62188;35.640;139.748;2023-12-20T09:51:22;100866.13;;;12.21;40.45
64115;BME280;62188;35.640;139.748;2023-12-20T09:53:46;100859.56;;;12.48;40.57
64115;BME280;62188;35.640;139.748;2023-12-20T09:56:11;100852.42;;;12.64;40.38
64115;BME280;62188;35.640;139.748;2023-12-20T09:58:39;100842.81;;;12.52;40.51
64115;BME280;62188;35.640;139.748;2023-12-20T10:01:03;100845.95;;;12.54;40.47
64115;BME280;62188;35.640;139.748;2023-12-20T10:03:28;100852.19;;;12.43;40.76
64115;BME280;62188;35.640;139.748;2023-12-20T10:05:54;100848.41;;;12.48;40.51
64115;BME280;62188;35.640;139.748;2023-12-20T10:08:18;100858.35;;;12.67;40.66
64115;BME280;62188;35.640;139.748;2023-12-20T10:10:46;100863.38;;;12.69;40.49
64115;BME280;62188;35.640;139.748;2023-12-20T10:13:11;100869.15;;;12.74;40.56
64115;BME280;62188;35.640;139.748;2023-12-20T10:15:36;100848.05;;;12.58;40.42
64115;BME280;62188;35.640;139.748;2023-12-20T10:18:01;100849.37;;;12.60;40.51
64115;BME280;62188;35.640;139.748;2023-12-20T10:20:27;100849.96;;;12.31;40.96
64115;BME280;62188;35.640;139.748;2023-12-20T10:22:53;100843.80;;;12.19;40.99
64115;BME280;62188;35.640;139.748;2023-12-20T10:25:16;100836.30;;;12.20;41.40
64115;BME280;62188;35.640;139.748;2023-12-20T10:27:44;100842.83;;;12.23;41.68
64115;BME280;62188;35.640;139.748;2023-12-20T10:30:12;100846.19;;;12.30;41.55
64115;BME280;62188;35.640;139.748;2023-12-20T10:32:35;100841.19;;;12.53;40.76
64115;BME280;62188;35.640;139.748;2023-12-20T10:34:59;100843.66;;;12.10;41.00
64115;BME280;62188;35.640;139.748;2023-12-20T10:37:24;100849.59;;;12.21;40.98
64115;BME280;62188;35.640;139.748;2023-12-20T10:39:52;100851.73;;;12.63;40.82
64115;BME280;62188;35.640;139.748;2023-12-20T10:42:17;100855.62;;;12.64;40.55
64115;BME280;62188;35.640;139.748;2023-12-20T10:44:42;100869.20;;;12.59;40.21
64115;BME280;62188;35.640;139.748;2023-12-20T10:47:08;100872.28;;;12.51;40.42
64115;BME280;62188;35.640;139.748;2023-12-20T10:49:36;100875.43;;;12.37;40.45
64115;BME280;62188;35.640;139.748;2023-12-20T10:52:01;100883.59;;;12.40;40.48
64115;BME280;62188;35.640;139.748;2023-12-20T10:54:24;100881.79;;;12.54;40.35
64115;BME280;62188;35.640;139.748;2023-12-20T10:56:52;100892.31;;;12.89;40.14
64115;BME280;62188;35.640;139.748;2023-12-20T10:59:16;100891.21;;;12.72;39.96
64115;BME280;62188;35.640;139.748;2023-12-20T11:01:41;100903.00;;;12.84;39.78
64115;BME280;62188;35.640;139.748;2023-12-20T11:04:09;100901.36;;;12.90;39.87
64115;BME280;62188;35.640;139.748;2023-12-20T11:06:38;100898.92;;;12.99;39.97
64115;BME280;62188;35.640;139.748;2023-12-20T11:09:03;100893.59;;;13.11;40.10
64115;BME280;62188;35.640;139.748;2023-12-20T11:11:29;100899.42;;;13.11;40.44
64115;BME280;62188;35.640;139.748;2023-12-20T11:13:55;100908.96;;;13.14;40.45
64115;BME280;62188;35.640;139.748;2023-12-20T11:16:14;100906.07;;;13.16;40.56
64115;BME280;62188;35.640;139.748;2023-12-20T11:18:38;100900.88;;;13.17;40.56
64115;BME280;62188;35.640;139.748;2023-12-20T11:21:05;100901.81;;;13.16;40.62
64115;BME280;62188;35.640;139.748;2023-12-20T11:23:30;100906.01;;;13.26;40.54
64115;BME280;62188;35.640;139.748;2023-12-20T11:25:55;100905.20;;;13.27;40.44
64115;BME280;62188;35.640;139.748;2023-12-20T11:28:25;100907.40;;;13.27;40.44
64115;BME280;62188;35.640;139.748;2023-12-20T11:30:50;100906.38;;;13.25;40.59
64115;BME280;62188;35.640;139.748;2023-12-20T11:33:13;100907.40;;;13.29;40.65
64115;BME280;62188;35.640;139.748;2023-12-20T11:35:37;100901.48;;;13.05;40.58
64115;BME280;62188;35.640;139.748;2023-12-20T11:38:03;100902.92;;;13.03;40.65
64115;BME280;62188;35.640;139.748;2023-12-20T11:40:27;100902.06;;;13.02;40.73
64115;BME280;62188;35.640;139.748;2023-12-20T11:42:54;100907.95;;;13.03;40.89
64115;BME280;62188;35.640;139.748;2023-12-20T11:45:21;100900.34;;;13.31;41.08
64115;BME280;62188;35.640;139.748;2023-12-20T11:47:48;100899.22;;;13.32;41.38
64115;BME280;62188;35.640;139.748;2023-12-20T11:50:11;100895.05;;;13.33;41.05
64115;BME280;62188;35.640;139.748;2023-12-20T11:52:35;100890.90;;;13.31;40.86
64115;BME280;62188;35.640;139.748;2023-12-20T11:55:00;100892.37;;;13.07;40.90
64115;BME280;62188;35.640;139.748;2023-12-20T11:57:26;100897.68;;;13.36;40.95
64115;BME280;62188;35.640;139.748;2023-12-20T11:59:52;100893.35;;;13.34;41.06
64115;BME280;62188;35.640;139.748;2023-12-20T12:02:17;100892.93;;;13.13;41.19
64115;BME280;62188;35.640;139.748;2023-12-20T12:04:43;100879.89;;;13.40;41.22
64115;BME280;62188;35.640;139.748;2023-12-20T12:07:08;100883.66;;;13.43;41.73
64115;BME280;62188;35.640;139.748;2023-12-20T12:09:32;100889.21;;;13.42;41.38
64115;BME280;62188;35.640;139.748;2023-12-20T12:12:00;100888.88;;;13.23;41.03
64115;BME280;62188;35.640;139.748;2023-12-20T12:14:24;100889.08;;;13.26;41.21
64115;BME280;62188;35.640;139.748;2023-12-20T12:16:51;100888.60;;;13.51;41.08
64115;BME280;62188;35.640;139.748;2023-12-20T12:19:21;100891.10;;;13.30;41.24
64115;BME280;62188;35.640;139.748;2023-12-20T12:21:40;100884.18;;;13.59;41.32